Hundred, WV (26575)

8:08 PM EDT on July 24, 2014 (GMT -0400)
Curtisville (KWVMANNI4) Elev 1017 ft | 39.52 °N, 80.44 °W | Change Station

Current weather conditions updated 8 minutes ago

Clear
Clear
71.1 °F
Feels Like 74 °F
N
0.0
Wind Variable Wind from West

Tomorrow is forecast to be Cooler than today.

Today
High -- | Low -- °F
--% Chance of Precip.
Yesterday
High -- | Low -- °F
Precip. -- in
6:13 AM 8:42 PM
Waning Crescent, 3% visible
Pressure 29.98 in
Visibility 10.0 miles
Clouds Clear
Heat Index 74 °F
Dew Point 62 °F
Humidity 72%
Rainfall 0.00 in
Snow Depth Not available.
UV 0 out of 12
Pollen 5.60 out of 12
Air Quality Not available.
Flu Activity Not available.
METAR KMGW 242353Z 34005KT 10SM CLR 23/11 A3000 RMK AO2 SLP150 T02330106 10267 20228 53003

More Conditions Fewer Conditions

Pressure 29.98 in
Visibility 10.0 miles
Clouds Clear
Heat Index 74 °F
Dew Point 62 °F
Humidity 72%
Rainfall 0.00 in
Snow Depth Not available.
UV 0 out of 12
Pollen 5.60 out of 12
Air Quality Not available.
Flu Activity Not available.
METAR KMGW 242353Z 34005KT 10SM CLR 23/11 A3000 RMK AO2 SLP150 T02330106 10267 20228 53003

More Conditions Fewer Conditions

10-Day Weather Forecast

Almanac

Astronomy

Jul. 24, 2014 Rise Set
Actual Time 6:13 AM EDT 8:42 PM EDT
Civil Twilight 5:42 AM EDT 9:13 PM EDT
Nautical Twilight 5:04 AM EDT 9:51 PM EDT
Astronomical Twilight 4:21 AM EDT 10:33 PM EDT
Moon 4:20 AM EDT (7/24) 6:56 PM EDT (7/24)
Length of Visible Light 15h 30m
Length of Day
14h 28m
Tomorrow will be 1m 43s shorter.
Waning Crescent, 3% of the Moon is Illuminated
Today
Waning Crescent
Jul 26
New
Aug 3
First Quarter
Aug 10
Full
Aug 17
Last Quarter

Today's Extremes

State Highs State Lows

Community

WunderPhotos

Upload Photos

1,737,169 photos uploaded!

Nearby

Snow Depth

Station Depth Elevation
No new snow has been reported.

Earthquake Activity

City Distance Mag. Time & Date
No recent earthquake activity has been reported nearby.
Minimum magnitude displayed is 2.5.

Coastal Water Temperatures

Place Temperature
No Stations Reporting

Nearby Weather Stations

Station Location Temp. Heat Index Dew Point Humidity Wind Precip. Elev Updated Type
Curtisville, Mannington, WV 71.1 °F 74 °F 62 °F 72% West  at  0.0 mph - / hr 1017 ft 7:59 PM EDT Normal
Shadyside, Franklin Twp, Waynesburg, PA 63.5 °F - 59 °F 86% WSW  at  0.0 mph 0.00 in / hr 1099 ft 8:08 PM EDT Normal
Pleasant Valley Station, Fairmont, WV 72.6 °F 75 °F 61 °F 67% West  at  0.0 mph 0.00 in / hr 1047 ft 8:06 PM EDT Normal
Shadyside, Ohio, Shadyside, OH 72.8 °F 77 °F 57 °F 58% NNW  at  0.0 mph 0.00 in / hr 669 ft 8:08 PM EDT Rapid Fire
Marshville, Salem, WV 72.0 °F 75 °F 61 °F 69% WSW  at  1.7 mph - / hr 1122 ft 7:56 PM EDT Normal
Kidwell, WV, Sistersville, WV 73.9 °F 76 °F 62 °F 66% NNW  at  0.0 mph - / hr 738 ft 7:59 PM EDT Normal

Show More Stations Show Fewer Stations